sensor_id;sensor_type;location;lat;lon;timestamp;P1;durP1;ratioP1;P2;durP2;ratioP2
12623;SDS011;6377;42.836;23.998;2024-01-30T00:00:15;21.57;;;12.30;;
12623;SDS011;6377;42.836;23.998;2024-01-30T00:02:43;22.47;;;12.43;;
12623;SDS011;6377;42.836;23.998;2024-01-30T00:05:14;21.10;;;13.10;;
12623;SDS011;6377;42.836;23.998;2024-01-30T00:07:42;19.93;;;11.60;;
12623;SDS011;6377;42.836;23.998;2024-01-30T00:10:10;15.23;;;10.33;;
12623;SDS011;6377;42.836;23.998;2024-01-30T00:12:37;17.60;;;10.87;;
12623;SDS011;6377;42.836;23.998;2024-01-30T00:15:05;19.13;;;11.90;;
12623;SDS011;6377;42.836;23.998;2024-01-30T00:17:37;48.47;;;26.90;;
12623;SDS011;6377;42.836;23.998;2024-01-30T00:20:05;31.27;;;18.30;;
12623;SDS011;6377;42.836;23.998;2024-01-30T00:22:34;22.53;;;13.93;;
12623;SDS011;6377;42.836;23.998;2024-01-30T00:25:02;23.70;;;13.73;;
12623;SDS011;6377;42.836;23.998;2024-01-30T00:27:31;21.13;;;11.97;;
12623;SDS011;6377;42.836;23.998;2024-01-30T00:29:59;20.10;;;11.30;;
12623;SDS011;6377;42.836;23.998;2024-01-30T00:32:32;109.40;;;35.67;;
12623;SDS011;6377;42.836;23.998;2024-01-30T00:35:15;28.50;;;15.83;;
12623;SDS011;6377;42.836;23.998;2024-01-30T00:37:42;43.77;;;18.90;;
12623;SDS011;6377;42.836;23.998;2024-01-30T00:40:22;15.20;;;7.93;;
12623;SDS011;6377;42.836;23.998;2024-01-30T00:42:53;15.33;;;8.80;;
12623;SDS011;6377;42.836;23.998;2024-01-30T00:45:23;22.43;;;11.30;;
12623;SDS011;6377;42.836;23.998;2024-01-30T00:47:54;10.90;;;6.87;;
12623;SDS011;6377;42.836;23.998;2024-01-30T00:50:26;15.60;;;7.60;;
12623;SDS011;6377;42.836;23.998;2024-01-30T00:52:54;10.80;;;6.43;;
12623;SDS011;6377;42.836;23.998;2024-01-30T00:55:22;8.70;;;6.17;;
12623;SDS011;6377;42.836;23.998;2024-01-30T00:57:50;9.10;;;5.57;;
12623;SDS011;6377;42.836;23.998;2024-01-30T01:00:23;12.57;;;6.27;;
12623;SDS011;6377;42.836;23.998;2024-01-30T01:02:54;15.60;;;7.77;;
12623;SDS011;6377;42.836;23.998;2024-01-30T01:05:26;16.50;;;7.20;;
12623;SDS011;6377;42.836;23.998;2024-01-30T01:07:53;8.63;;;5.50;;
12623;SDS011;6377;42.836;23.998;2024-01-30T01:10:22;7.57;;;4.83;;
12623;SDS011;6377;42.836;23.998;2024-01-30T01:12:53;9.57;;;5.50;;
12623;SDS011;6377;42.836;23.998;2024-01-30T01:15:21;13.00;;;7.07;;
12623;SDS011;6377;42.836;23.998;2024-01-30T01:17:48;10.57;;;6.63;;
12623;SDS011;6377;42.836;23.998;2024-01-30T01:20:16;9.53;;;6.03;;
12623;SDS011;6377;42.836;23.998;2024-01-30T01:22:49;9.77;;;6.03;;
12623;SDS011;6377;42.836;23.998;2024-01-30T01:25:18;9.53;;;6.20;;
12623;SDS011;6377;42.836;23.998;2024-01-30T01:27:58;7.73;;;5.17;;
12623;SDS011;6377;42.836;23.998;2024-01-30T01:30:31;11.30;;;6.90;;
12623;SDS011;6377;42.836;23.998;2024-01-30T01:32:59;11.63;;;7.00;;
12623;SDS011;6377;42.836;23.998;2024-01-30T01:35:27;7.60;;;5.37;;
12623;SDS011;6377;42.836;23.998;2024-01-30T01:37:57;9.40;;;5.47;;
12623;SDS011;6377;42.836;23.998;2024-01-30T01:40:29;8.60;;;4.73;;
12623;SDS011;6377;42.836;23.998;2024-01-30T01:43:02;8.17;;;4.90;;
12623;SDS011;6377;42.836;23.998;2024-01-30T01:45:31;7.37;;;5.50;;
12623;SDS011;6377;42.836;23.998;2024-01-30T01:47:59;8.03;;;5.27;;
12623;SDS011;6377;42.836;23.998;2024-01-30T01:50:27;5.70;;;4.00;;
12623;SDS011;6377;42.836;23.998;2024-01-30T01:52:57;5.80;;;4.73;;
12623;SDS011;6377;42.836;23.998;2024-01-30T01:55:25;6.27;;;4.67;;
12623;SDS011;6377;42.836;23.998;2024-01-30T01:57:56;5.07;;;3.90;;
12623;SDS011;6377;42.836;23.998;2024-01-30T02:00:27;5.37;;;4.00;;
12623;SDS011;6377;42.836;23.998;2024-01-30T02:02:56;4.27;;;3.70;;
12623;SDS011;6377;42.836;23.998;2024-01-30T02:05:25;5.30;;;3.63;;
12623;SDS011;6377;42.836;23.998;2024-01-30T02:07:54;5.30;;;3.80;;
12623;SDS011;6377;42.836;23.998;2024-01-30T02:10:25;4.87;;;3.63;;
12623;SDS011;6377;42.836;23.998;2024-01-30T02:12:56;4.10;;;3.13;;
12623;SDS011;6377;42.836;23.998;2024-01-30T02:15:25;5.07;;;3.17;;
12623;SDS011;6377;42.836;23.998;2024-01-30T02:17:54;4.23;;;3.23;;
12623;SDS011;6377;42.836;23.998;2024-01-30T02:20:22;5.47;;;3.30;;
12623;SDS011;6377;42.836;23.998;2024-01-30T02:22:54;5.93;;;3.70;;
12623;SDS011;6377;42.836;23.998;2024-01-30T02:28:12;3.20;;;2.37;;
12623;SDS011;6377;42.836;23.998;2024-01-30T02:30:40;4.47;;;2.97;;
12623;SDS011;6377;42.836;23.998;2024-01-30T02:33:10;4.97;;;2.80;;
12623;SDS011;6377;42.836;23.998;2024-01-30T02:35:40;4.13;;;2.73;;
12623;SDS011;6377;42.836;23.998;2024-01-30T02:38:12;4.40;;;3.10;;
12623;SDS011;6377;42.836;23.998;2024-01-30T02:40:40;3.03;;;2.47;;
12623;SDS011;6377;42.836;23.998;2024-01-30T02:43:11;4.07;;;2.50;;
12623;SDS011;6377;42.836;23.998;2024-01-30T02:45:39;3.37;;;2.57;;
12623;SDS011;6377;42.836;23.998;2024-01-30T02:48:08;4.33;;;2.67;;
12623;SDS011;6377;42.836;23.998;2024-01-30T02:50:35;3.70;;;2.77;;
12623;SDS011;6377;42.836;23.998;2024-01-30T02:53:06;10.40;;;5.70;;
12623;SDS011;6377;42.836;23.998;2024-01-30T02:55:36;6.27;;;4.00;;
12623;SDS011;6377;42.836;23.998;2024-01-30T02:58:10;4.63;;;3.60;;
12623;SDS011;6377;42.836;23.998;2024-01-30T03:00:47;5.47;;;4.13;;
12623;SDS011;6377;42.836;23.998;2024-01-30T03:05:59;5.87;;;4.00;;
12623;SDS011;6377;42.836;23.998;2024-01-30T03:08:30;5.80;;;3.67;;
12623;SDS011;6377;42.836;23.998;2024-01-30T03:10:59;6.07;;;3.53;;
12623;SDS011;6377;42.836;23.998;2024-01-30T03:13:27;4.63;;;3.23;;
12623;SDS011;6377;42.836;23.998;2024-01-30T03:15:55;5.40;;;3.33;;
12623;SDS011;6377;42.836;23.998;2024-01-30T03:18:22;6.87;;;3.43;;
12623;SDS011;6377;42.836;23.998;2024-01-30T03:20:53;4.63;;;3.10;;
12623;SDS011;6377;42.836;23.998;2024-01-30T03:23:20;4.17;;;2.80;;
12623;SDS011;6377;42.836;23.998;2024-01-30T03:25:49;3.90;;;2.90;;
12623;SDS011;6377;42.836;23.998;2024-01-30T03:28:18;3.77;;;2.90;;
12623;SDS011;6377;42.836;23.998;2024-01-30T03:30:46;5.00;;;3.13;;
12623;SDS011;6377;42.836;23.998;2024-01-30T03:33:16;4.30;;;2.90;;
12623;SDS011;6377;42.836;23.998;2024-01-30T03:35:51;4.60;;;3.43;;
12623;SDS011;6377;42.836;23.998;2024-01-30T03:38:22;5.30;;;2.97;;
12623;SDS011;6377;42.836;23.998;2024-01-30T03:50:18;4.90;;;2.90;;
12623;SDS011;6377;42.836;23.998;2024-01-30T03:52:45;3.93;;;3.00;;
12623;SDS011;6377;42.836;23.998;2024-01-30T03:55:13;4.60;;;3.40;;
12623;SDS011;6377;42.836;23.998;2024-01-30T03:57:45;5.77;;;3.37;;
12623;SDS011;6377;42.836;23.998;2024-01-30T04:00:20;5.77;;;3.33;;
12623;SDS011;6377;42.836;23.998;2024-01-30T04:02:48;5.03;;;3.17;;
12623;SDS011;6377;42.836;23.998;2024-01-30T04:05:17;3.47;;;2.90;;
12623;SDS011;6377;42.836;23.998;2024-01-30T04:08:01;9.97;;;4.80;;
12623;SDS011;6377;42.836;23.998;2024-01-30T04:10:48;14.30;;;7.37;;
12623;SDS011;6377;42.836;23.998;2024-01-30T04:13:22;12.97;;;7.27;;
12623;SDS011;6377;42.836;23.998;2024-01-30T04:15:52;14.27;;;7.17;;
12623;SDS011;6377;42.836;23.998;2024-01-30T04:18:21;10.10;;;5.90;;
12623;SDS011;6377;42.836;23.998;2024-01-30T04:20:51;4.00;;;2.50;;
12623;SDS011;6377;42.836;23.998;2024-01-30T04:23:19;5.00;;;3.20;;
12623;SDS011;6377;42.836;23.998;2024-01-30T04:25:47;4.37;;;2.93;;
12623;SDS011;6377;42.836;23.998;2024-01-30T04:28:15;6.27;;;3.77;;
12623;SDS011;6377;42.836;23.998;2024-01-30T04:30:42;4.83;;;3.10;;
12623;SDS011;6377;42.836;23.998;2024-01-30T04:33:11;5.30;;;3.30;;
12623;SDS011;6377;42.836;23.998;2024-01-30T04:35:43;5.37;;;3.20;;
12623;SDS011;6377;42.836;23.998;2024-01-30T04:38:11;5.47;;;3.50;;
12623;SDS011;6377;42.836;23.998;2024-01-30T04:40:40;4.50;;;3.13;;
12623;SDS011;6377;42.836;23.998;2024-01-30T04:43:10;3.87;;;2.90;;
12623;SDS011;6377;42.836;23.998;2024-01-30T04:45:38;5.27;;;3.80;;
12623;SDS011;6377;42.836;23.998;2024-01-30T04:48:06;3.43;;;2.53;;
12623;SDS011;6377;42.836;23.998;2024-01-30T04:50:35;3.37;;;2.63;;
12623;SDS011;6377;42.836;23.998;2024-01-30T04:53:02;3.67;;;2.57;;
12623;SDS011;6377;42.836;23.998;2024-01-30T04:55:31;3.20;;;2.50;;
12623;SDS011;6377;42.836;23.998;2024-01-30T04:57:59;2.80;;;2.20;;
12623;SDS011;6377;42.836;23.998;2024-01-30T05:00:26;7.30;;;4.50;;
12623;SDS011;6377;42.836;23.998;2024-01-30T05:06:26;3.17;;;2.40;;
12623;SDS011;6377;42.836;23.998;2024-01-30T05:08:57;5.03;;;2.70;;
12623;SDS011;6377;42.836;23.998;2024-01-30T05:11:25;3.60;;;3.10;;
12623;SDS011;6377;42.836;23.998;2024-01-30T05:13:58;3.40;;;2.67;;
12623;SDS011;6377;42.836;23.998;2024-01-30T05:16:32;5.83;;;2.77;;
12623;SDS011;6377;42.836;23.998;2024-01-30T05:19:08;3.93;;;2.60;;
12623;SDS011;6377;42.836;23.998;2024-01-30T05:21:44;3.77;;;2.67;;
12623;SDS011;6377;42.836;23.998;2024-01-30T05:24:12;3.90;;;2.93;;
12623;SDS011;6377;42.836;23.998;2024-01-30T05:26:42;5.57;;;3.30;;
12623;SDS011;6377;42.836;23.998;2024-01-30T05:29:10;5.87;;;3.60;;
12623;SDS011;6377;42.836;23.998;2024-01-30T05:31:44;5.67;;;3.50;;
12623;SDS011;6377;42.836;23.998;2024-01-30T05:34:15;4.97;;;3.60;;
12623;SDS011;6377;42.836;23.998;2024-01-30T05:36:47;5.30;;;3.30;;
12623;SDS011;6377;42.836;23.998;2024-01-30T05:39:15;6.03;;;4.53;;
12623;SDS011;6377;42.836;23.998;2024-01-30T05:41:46;8.07;;;5.50;;
12623;SDS011;6377;42.836;23.998;2024-01-30T05:44:16;6.43;;;4.40;;
12623;SDS011;6377;42.836;23.998;2024-01-30T05:46:51;6.47;;;4.30;;
12623;SDS011;6377;42.836;23.998;2024-01-30T05:49:22;10.87;;;6.00;;
12623;SDS011;6377;42.836;23.998;2024-01-30T05:51:51;11.27;;;8.03;;
12623;SDS011;6377;42.836;23.998;2024-01-30T05:54:22;11.60;;;8.10;;
12623;SDS011;6377;42.836;23.998;2024-01-30T05:56:50;15.90;;;7.10;;
12623;SDS011;6377;42.836;23.998;2024-01-30T05:59:18;6.60;;;4.50;;
12623;SDS011;6377;42.836;23.998;2024-01-30T06:01:47;10.03;;;6.13;;
12623;SDS011;6377;42.836;23.998;2024-01-30T06:04:17;9.87;;;6.70;;
12623;SDS011;6377;42.836;23.998;2024-01-30T06:06:45;7.13;;;5.03;;
12623;SDS011;6377;42.836;23.998;2024-01-30T06:09:14;6.27;;;3.97;;
12623;SDS011;6377;42.836;23.998;2024-01-30T06:11:42;6.47;;;3.50;;
12623;SDS011;6377;42.836;23.998;2024-01-30T06:14:13;2.83;;;2.37;;
12623;SDS011;6377;42.836;23.998;2024-01-30T06:16:55;3.63;;;3.03;;
12623;SDS011;6377;42.836;23.998;2024-01-30T06:19:29;4.67;;;3.30;;
12623;SDS011;6377;42.836;23.998;2024-01-30T06:21:58;15.17;;;7.63;;
12623;SDS011;6377;42.836;23.998;2024-01-30T06:24:31;10.60;;;7.50;;
12623;SDS011;6377;42.836;23.998;2024-01-30T06:27:04;5.80;;;4.07;;
12623;SDS011;6377;42.836;23.998;2024-01-30T06:29:37;6.03;;;4.57;;
12623;SDS011;6377;42.836;23.998;2024-01-30T06:32:06;7.13;;;4.77;;
12623;SDS011;6377;42.836;23.998;2024-01-30T06:34:36;7.83;;;5.23;;
12623;SDS011;6377;42.836;23.998;2024-01-30T06:37:04;7.93;;;5.03;;
12623;SDS011;6377;42.836;23.998;2024-01-30T06:39:41;7.40;;;4.60;;
12623;SDS011;6377;42.836;23.998;2024-01-30T06:42:09;14.40;;;7.30;;
12623;SDS011;6377;42.836;23.998;2024-01-30T06:44:40;6.20;;;4.07;;
12623;SDS011;6377;42.836;23.998;2024-01-30T06:47:07;5.17;;;3.53;;
12623;SDS011;6377;42.836;23.998;2024-01-30T06:49:36;6.87;;;4.27;;
12623;SDS011;6377;42.836;23.998;2024-01-30T06:52:23;8.87;;;4.97;;
12623;SDS011;6377;42.836;23.998;2024-01-30T06:55:14;6.70;;;3.90;;
12623;SDS011;6377;42.836;23.998;2024-01-30T06:57:47;8.77;;;5.40;;
12623;SDS011;6377;42.836;23.998;2024-01-30T07:00:29;16.13;;;7.73;;
12623;SDS011;6377;42.836;23.998;2024-01-30T07:03:04;11.07;;;6.87;;
12623;SDS011;6377;42.836;23.998;2024-01-30T07:05:41;18.10;;;7.77;;
12623;SDS011;6377;42.836;23.998;2024-01-30T07:08:22;10.03;;;5.63;;
12623;SDS011;6377;42.836;23.998;2024-01-30T07:16:31;15.97;;;7.57;;
12623;SDS011;6377;42.836;23.998;2024-01-30T07:18:59;10.83;;;5.53;;
12623;SDS011;6377;42.836;23.998;2024-01-30T07:21:27;11.00;;;5.47;;
12623;SDS011;6377;42.836;23.998;2024-01-30T07:23:57;9.20;;;5.30;;
12623;SDS011;6377;42.836;23.998;2024-01-30T07:26:26;8.10;;;5.03;;
12623;SDS011;6377;42.836;23.998;2024-01-30T07:28:53;25.73;;;12.53;;
12623;SDS011;6377;42.836;23.998;2024-01-30T07:31:21;11.10;;;6.80;;
12623;SDS011;6377;42.836;23.998;2024-01-30T07:33:49;16.10;;;9.23;;
12623;SDS011;6377;42.836;23.998;2024-01-30T07:36:17;8.47;;;5.27;;
12623;SDS011;6377;42.836;23.998;2024-01-30T07:38:44;8.90;;;5.60;;
12623;SDS011;6377;42.836;23.998;2024-01-30T07:41:12;8.13;;;4.90;;
12623;SDS011;6377;42.836;23.998;2024-01-30T07:43:42;9.07;;;5.63;;
12623;SDS011;6377;42.836;23.998;2024-01-30T07:46:10;10.07;;;5.87;;
12623;SDS011;6377;42.836;23.998;2024-01-30T07:48:37;13.33;;;6.60;;
12623;SDS011;6377;42.836;23.998;2024-01-30T07:51:05;15.37;;;7.77;;
12623;SDS011;6377;42.836;23.998;2024-01-30T07:53:32;9.40;;;5.60;;
12623;SDS011;6377;42.836;23.998;2024-01-30T07:56:00;10.20;;;5.73;;
12623;SDS011;6377;42.836;23.998;2024-01-30T07:58:28;13.67;;;7.43;;
12623;SDS011;6377;42.836;23.998;2024-01-30T08:00:57;8.53;;;6.27;;
12623;SDS011;6377;42.836;23.998;2024-01-30T08:03:25;10.93;;;6.77;;
12623;SDS011;6377;42.836;23.998;2024-01-30T08:05:54;8.40;;;5.73;;
12623;SDS011;6377;42.836;23.998;2024-01-30T08:08:21;9.00;;;5.67;;
12623;SDS011;6377;42.836;23.998;2024-01-30T08:10:49;10.07;;;6.67;;
12623;SDS011;6377;42.836;23.998;2024-01-30T08:13:16;14.60;;;8.63;;
12623;SDS011;6377;42.836;23.998;2024-01-30T08:15:43;11.60;;;6.57;;
12623;SDS011;6377;42.836;23.998;2024-01-30T08:18:12;15.27;;;8.73;;
12623;SDS011;6377;42.836;23.998;2024-01-30T08:20:43;12.27;;;7.93;;
12623;SDS011;6377;42.836;23.998;2024-01-30T08:23:10;11.10;;;7.10;;
12623;SDS011;6377;42.836;23.998;2024-01-30T08:25:38;11.87;;;7.10;;
12623;SDS011;6377;42.836;23.998;2024-01-30T08:28:05;12.67;;;6.80;;
12623;SDS011;6377;42.836;23.998;2024-01-30T08:30:36;16.40;;;8.63;;
12623;SDS011;6377;42.836;23.998;2024-01-30T08:33:06;13.20;;;6.83;;
12623;SDS011;6377;42.836;23.998;2024-01-30T08:35:35;19.40;;;9.33;;
12623;SDS011;6377;42.836;23.998;2024-01-30T08:38:03;9.37;;;5.77;;
12623;SDS011;6377;42.836;23.998;2024-01-30T08:40:31;9.00;;;5.90;;
12623;SDS011;6377;42.836;23.998;2024-01-30T08:42:58;11.20;;;7.67;;
12623;SDS011;6377;42.836;23.998;2024-01-30T08:45:26;14.23;;;8.43;;
12623;SDS011;6377;42.836;23.998;2024-01-30T08:47:53;19.47;;;11.53;;
12623;SDS011;6377;42.836;23.998;2024-01-30T08:50:21;16.60;;;10.27;;
12623;SDS011;6377;42.836;23.998;2024-01-30T08:52:49;9.40;;;7.23;;
12623;SDS011;6377;42.836;23.998;2024-01-30T08:55:17;18.47;;;10.33;;
12623;SDS011;6377;42.836;23.998;2024-01-30T08:57:44;8.33;;;6.23;;
12623;SDS011;6377;42.836;23.998;2024-01-30T09:00:12;7.73;;;4.70;;
12623;SDS011;6377;42.836;23.998;2024-01-30T09:02:40;5.77;;;4.90;;
12623;SDS011;6377;42.836;23.998;2024-01-30T09:05:07;6.97;;;4.90;;
12623;SDS011;6377;42.836;23.998;2024-01-30T09:07:35;6.87;;;4.90;;
12623;SDS011;6377;42.836;23.998;2024-01-30T09:10:05;6.07;;;4.23;;
12623;SDS011;6377;42.836;23.998;2024-01-30T09:12:33;6.87;;;4.53;;
12623;SDS011;6377;42.836;23.998;2024-01-30T09:15:01;10.43;;;5.00;;
12623;SDS011;6377;42.836;23.998;2024-01-30T09:17:28;6.50;;;4.37;;
12623;SDS011;6377;42.836;23.998;2024-01-30T09:19:56;7.33;;;4.10;;
12623;SDS011;6377;42.836;23.998;2024-01-30T09:22:24;6.57;;;4.17;;
12623;SDS011;6377;42.836;23.998;2024-01-30T09:24:51;7.23;;;4.37;;
12623;SDS011;6377;42.836;23.998;2024-01-30T09:27:20;6.93;;;4.70;;
12623;SDS011;6377;42.836;23.998;2024-01-30T09:29:51;6.30;;;4.60;;
12623;SDS011;6377;42.836;23.998;2024-01-30T09:32:18;6.60;;;4.33;;
12623;SDS011;6377;42.836;23.998;2024-01-30T09:34:46;6.20;;;4.50;;
12623;SDS011;6377;42.836;23.998;2024-01-30T09:37:13;8.50;;;5.00;;
12623;SDS011;6377;42.836;23.998;2024-01-30T09:39:43;4.37;;;3.73;;
12623;SDS011;6377;42.836;23.998;2024-01-30T09:42:11;6.20;;;3.57;;
12623;SDS011;6377;42.836;23.998;2024-01-30T09:44:49;8.23;;;4.90;;
12623;SDS011;6377;42.836;23.998;2024-01-30T09:47:21;5.53;;;4.27;;
12623;SDS011;6377;42.836;23.998;2024-01-30T09:49:48;5.03;;;3.47;;
12623;SDS011;6377;42.836;23.998;2024-01-30T09:52:25;6.87;;;4.13;;
12623;SDS011;6377;42.836;23.998;2024-01-30T09:55:10;5.53;;;3.77;;
12623;SDS011;6377;42.836;23.998;2024-01-30T10:10:45;16.87;;;8.47;;
12623;SDS011;6377;42.836;23.998;2024-01-30T10:13:32;8.70;;;5.93;;
12623;SDS011;6377;42.836;23.998;2024-01-30T10:16:15;8.77;;;5.00;;
12623;SDS011;6377;42.836;23.998;2024-01-30T10:18:42;7.90;;;4.80;;
12623;SDS011;6377;42.836;23.998;2024-01-30T10:21:11;13.93;;;7.93;;
12623;SDS011;6377;42.836;23.998;2024-01-30T10:23:39;14.60;;;8.27;;
12623;SDS011;6377;42.836;23.998;2024-01-30T10:26:07;8.57;;;5.83;;
12623;SDS011;6377;42.836;23.998;2024-01-30T10:28:34;8.40;;;5.07;;
12623;SDS011;6377;42.836;23.998;2024-01-30T10:31:01;9.57;;;5.63;;
12623;SDS011;6377;42.836;23.998;2024-01-30T10:33:30;12.23;;;7.03;;
12623;SDS011;6377;42.836;23.998;2024-01-30T10:36:00;9.53;;;5.80;;
12623;SDS011;6377;42.836;23.998;2024-01-30T10:38:29;6.70;;;4.60;;
12623;SDS011;6377;42.836;23.998;2024-01-30T10:40:58;9.83;;;5.80;;
12623;SDS011;6377;42.836;23.998;2024-01-30T10:43:28;7.70;;;5.10;;
12623;SDS011;6377;42.836;23.998;2024-01-30T10:46:01;6.43;;;4.67;;
12623;SDS011;6377;42.836;23.998;2024-01-30T10:48:35;9.40;;;6.80;;
12623;SDS011;6377;42.836;23.998;2024-01-30T10:51:08;6.60;;;4.20;;
12623;SDS011;6377;42.836;23.998;2024-01-30T10:53:39;8.30;;;4.83;;
12623;SDS011;6377;42.836;23.998;2024-01-30T10:56:06;10.47;;;6.87;;
12623;SDS011;6377;42.836;23.998;2024-01-30T10:58:37;7.40;;;5.10;;
12623;SDS011;6377;42.836;23.998;2024-01-30T11:01:05;6.00;;;4.03;;
12623;SDS011;6377;42.836;23.998;2024-01-30T11:03:32;6.47;;;4.60;;
12623;SDS011;6377;42.836;23.998;2024-01-30T11:06:02;6.30;;;4.53;;
12623;SDS011;6377;42.836;23.998;2024-01-30T11:08:31;6.63;;;4.80;;
12623;SDS011;6377;42.836;23.998;2024-01-30T11:11:02;11.37;;;7.00;;
12623;SDS011;6377;42.836;23.998;2024-01-30T11:13:36;8.37;;;5.27;;
12623;SDS011;6377;42.836;23.998;2024-01-30T11:16:04;10.43;;;6.93;;
12623;SDS011;6377;42.836;23.998;2024-01-30T11:18:32;17.33;;;7.77;;
12623;SDS011;6377;42.836;23.998;2024-01-30T11:21:04;9.23;;;6.23;;
12623;SDS011;6377;42.836;23.998;2024-01-30T11:23:33;9.43;;;7.40;;
12623;SDS011;6377;42.836;23.998;2024-01-30T11:26:02;10.53;;;7.40;;
12623;SDS011;6377;42.836;23.998;2024-01-30T11:28:34;12.00;;;8.00;;
12623;SDS011;6377;42.836;23.998;2024-01-30T11:31:04;8.07;;;5.40;;
12623;SDS011;6377;42.836;23.998;2024-01-30T11:33:33;9.03;;;5.70;;
12623;SDS011;6377;42.836;23.998;2024-01-30T11:36:01;9.60;;;7.00;;
12623;SDS011;6377;42.836;23.998;2024-01-30T11:38:28;9.50;;;5.67;;
12623;SDS011;6377;42.836;23.998;2024-01-30T11:40:56;7.57;;;5.37;;
12623;SDS011;6377;42.836;23.998;2024-01-30T11:43:24;14.83;;;7.17;;
12623;SDS011;6377;42.836;23.998;2024-01-30T11:45:51;14.63;;;8.90;;
12623;SDS011;6377;42.836;23.998;2024-01-30T11:48:19;20.47;;;9.93;;
12623;SDS011;6377;42.836;23.998;2024-01-30T11:50:46;11.83;;;7.57;;
12623;SDS011;6377;42.836;23.998;2024-01-30T11:53:17;9.03;;;6.57;;
12623;SDS011;6377;42.836;23.998;2024-01-30T11:55:49;11.10;;;7.23;;
12623;SDS011;6377;42.836;23.998;2024-01-30T11:58:16;10.70;;;6.60;;
12623;SDS011;6377;42.836;23.998;2024-01-30T12:00:53;10.47;;;6.67;;
12623;SDS011;6377;42.836;23.998;2024-01-30T12:03:21;6.23;;;5.00;;
12623;SDS011;6377;42.836;23.998;2024-01-30T12:05:54;9.60;;;6.40;;
12623;SDS011;6377;42.836;23.998;2024-01-30T12:08:22;8.83;;;5.90;;
12623;SDS011;6377;42.836;23.998;2024-01-30T12:10:55;9.77;;;6.90;;
12623;SDS011;6377;42.836;23.998;2024-01-30T12:13:23;12.60;;;6.87;;
12623;SDS011;6377;42.836;23.998;2024-01-30T12:15:50;11.37;;;6.20;;
12623;SDS011;6377;42.836;23.998;2024-01-30T12:18:19;10.87;;;7.63;;
12623;SDS011;6377;42.836;23.998;2024-01-30T12:20:56;9.60;;;6.10;;
12623;SDS011;6377;42.836;23.998;2024-01-30T12:23:24;10.83;;;6.60;;
12623;SDS011;6377;42.836;23.998;2024-01-30T12:25:52;9.03;;;5.93;;
12623;SDS011;6377;42.836;23.998;2024-01-30T12:28:19;8.53;;;5.27;;
12623;SDS011;6377;42.836;23.998;2024-01-30T12:30:47;12.57;;;7.93;;
12623;SDS011;6377;42.836;23.998;2024-01-30T12:33:17;7.73;;;5.43;;
12623;SDS011;6377;42.836;23.998;2024-01-30T12:35:46;8.73;;;5.10;;
12623;SDS011;6377;42.836;23.998;2024-01-30T12:38:14;18.00;;;8.80;;
12623;SDS011;6377;42.836;23.998;2024-01-30T12:40:41;10.47;;;6.40;;
12623;SDS011;6377;42.836;23.998;2024-01-30T12:43:08;9.10;;;6.27;;
12623;SDS011;6377;42.836;23.998;2024-01-30T12:45:36;7.30;;;5.03;;
12623;SDS011;6377;42.836;23.998;2024-01-30T12:48:04;7.70;;;4.43;;
12623;SDS011;6377;42.836;23.998;2024-01-30T12:50:33;8.40;;;5.60;;
12623;SDS011;6377;42.836;23.998;2024-01-30T12:53:01;15.03;;;8.93;;
12623;SDS011;6377;42.836;23.998;2024-01-30T12:55:28;8.80;;;5.53;;
12623;SDS011;6377;42.836;23.998;2024-01-30T12:57:55;8.17;;;5.17;;
12623;SDS011;6377;42.836;23.998;2024-01-30T13:00:23;7.93;;;5.03;;
12623;SDS011;6377;42.836;23.998;2024-01-30T13:02:50;5.57;;;4.00;;
12623;SDS011;6377;42.836;23.998;2024-01-30T13:05:18;6.13;;;3.73;;
12623;SDS011;6377;42.836;23.998;2024-01-30T13:07:47;10.17;;;3.90;;
12623;SDS011;6377;42.836;23.998;2024-01-30T13:10:14;8.63;;;4.73;;
12623;SDS011;6377;42.836;23.998;2024-01-30T13:12:42;5.53;;;4.40;;
12623;SDS011;6377;42.836;23.998;2024-01-30T13:15:09;5.27;;;3.57;;
12623;SDS011;6377;42.836;23.998;2024-01-30T13:17:37;10.67;;;6.53;;
12623;SDS011;6377;42.836;23.998;2024-01-30T13:20:08;14.03;;;7.30;;
12623;SDS011;6377;42.836;23.998;2024-01-30T13:22:36;9.30;;;5.60;;
12623;SDS011;6377;42.836;23.998;2024-01-30T13:25:06;6.47;;;3.97;;
12623;SDS011;6377;42.836;23.998;2024-01-30T13:27:34;7.40;;;5.17;;
12623;SDS011;6377;42.836;23.998;2024-01-30T13:30:02;7.60;;;5.90;;
12623;SDS011;6377;42.836;23.998;2024-01-30T13:32:30;8.73;;;4.40;;
12623;SDS011;6377;42.836;23.998;2024-01-30T13:34:57;12.73;;;6.90;;
12623;SDS011;6377;42.836;23.998;2024-01-30T13:37:24;10.03;;;7.30;;
12623;SDS011;6377;42.836;23.998;2024-01-30T13:39:52;9.80;;;6.87;;
12623;SDS011;6377;42.836;23.998;2024-01-30T13:42:21;8.83;;;5.90;;
12623;SDS011;6377;42.836;23.998;2024-01-30T13:44:48;9.13;;;6.37;;
12623;SDS011;6377;42.836;23.998;2024-01-30T13:47:16;7.13;;;5.33;;
12623;SDS011;6377;42.836;23.998;2024-01-30T13:49:44;15.87;;;9.00;;
12623;SDS011;6377;42.836;23.998;2024-01-30T13:52:11;8.73;;;6.77;;
12623;SDS011;6377;42.836;23.998;2024-01-30T13:54:39;8.63;;;6.20;;
12623;SDS011;6377;42.836;23.998;2024-01-30T13:57:06;7.17;;;5.10;;
12623;SDS011;6377;42.836;23.998;2024-01-30T13:59:37;6.27;;;4.83;;
12623;SDS011;6377;42.836;23.998;2024-01-30T14:02:13;10.70;;;6.10;;
12623;SDS011;6377;42.836;23.998;2024-01-30T14:04:40;9.10;;;5.47;;
12623;SDS011;6377;42.836;23.998;2024-01-30T14:07:08;13.00;;;8.23;;
12623;SDS011;6377;42.836;23.998;2024-01-30T14:09:36;13.37;;;7.93;;
12623;SDS011;6377;42.836;23.998;2024-01-30T14:12:04;16.77;;;10.17;;
12623;SDS011;6377;42.836;23.998;2024-01-30T14:14:32;8.07;;;5.37;;
12623;SDS011;6377;42.836;23.998;2024-01-30T14:17:04;13.97;;;7.50;;
12623;SDS011;6377;42.836;23.998;2024-01-30T14:19:32;11.73;;;7.77;;
12623;SDS011;6377;42.836;23.998;2024-01-30T14:22:00;8.50;;;5.83;;
12623;SDS011;6377;42.836;23.998;2024-01-30T14:24:28;14.03;;;6.67;;
12623;SDS011;6377;42.836;23.998;2024-01-30T14:26:55;15.27;;;8.47;;
12623;SDS011;6377;42.836;23.998;2024-01-30T14:29:23;8.73;;;6.00;;
12623;SDS011;6377;42.836;23.998;2024-01-30T14:31:51;9.47;;;5.97;;
12623;SDS011;6377;42.836;23.998;2024-01-30T14:34:19;9.83;;;6.07;;
12623;SDS011;6377;42.836;23.998;2024-01-30T14:36:47;11.00;;;6.53;;
12623;SDS011;6377;42.836;23.998;2024-01-30T14:39:14;11.10;;;6.63;;
12623;SDS011;6377;42.836;23.998;2024-01-30T14:41:42;10.10;;;5.60;;
12623;SDS011;6377;42.836;23.998;2024-01-30T14:44:09;10.73;;;5.77;;
12623;SDS011;6377;42.836;23.998;2024-01-30T14:46:37;9.07;;;5.80;;
12623;SDS011;6377;42.836;23.998;2024-01-30T14:49:04;7.63;;;4.87;;
12623;SDS011;6377;42.836;23.998;2024-01-30T14:51:34;9.30;;;6.27;;
12623;SDS011;6377;42.836;23.998;2024-01-30T14:54:03;9.00;;;6.00;;
12623;SDS011;6377;42.836;23.998;2024-01-30T14:56:34;11.43;;;6.07;;
12623;SDS011;6377;42.836;23.998;2024-01-30T14:59:04;28.47;;;13.93;;
12623;SDS011;6377;42.836;23.998;2024-01-30T15:01:31;10.97;;;7.33;;
12623;SDS011;6377;42.836;23.998;2024-01-30T15:03:59;13.40;;;6.77;;
12623;SDS011;6377;42.836;23.998;2024-01-30T15:06:26;13.23;;;6.80;;
12623;SDS011;6377;42.836;23.998;2024-01-30T15:08:55;10.80;;;5.30;;
12623;SDS011;6377;42.836;23.998;2024-01-30T15:11:26;26.57;;;12.37;;
12623;SDS011;6377;42.836;23.998;2024-01-30T15:13:53;20.23;;;8.93;;
12623;SDS011;6377;42.836;23.998;2024-01-30T15:16:21;31.30;;;15.20;;
12623;SDS011;6377;42.836;23.998;2024-01-30T15:18:49;29.33;;;16.17;;
12623;SDS011;6377;42.836;23.998;2024-01-30T15:21:16;19.20;;;10.03;;
12623;SDS011;6377;42.836;23.998;2024-01-30T15:23:47;18.40;;;10.37;;
12623;SDS011;6377;42.836;23.998;2024-01-30T15:26:18;14.57;;;9.23;;
12623;SDS011;6377;42.836;23.998;2024-01-30T15:28:49;31.90;;;17.60;;
12623;SDS011;6377;42.836;23.998;2024-01-30T15:31:17;9.43;;;6.17;;